Louvale, Georgia
Current Conditions -  °F | °C
As of 10:23 PM on Monday 20 Oct 2014 (Local Time) from KLSF Reporting Station
Haze Haze  
Wind Chill: 55°   Ceiling: Unl
Heat Index: 55°   Visibility: 1.2mi
Dew Point: 55°   Wind: 0mph
Humidity: 100%   Direction: NA
Pressure: 30.02"   Gusts: NA
Location:  32.18°N, 84.83°W
Report Text: KLSF 210223Z AUTO 00000KT 1 1/4SM R33/3000FT BR CLR 13/13 A3002 RMK AO2 VIS 1 1/4V4
Loading
Personal Weather Stations






























Interactive Weather Map
Tropical Storm Tracking
New forecast layout! Learn more

10-Day Weather Forecast

Advertisements
Track Severe Weather on mobile